sensor_id;sensor_type;location;lat;lon;timestamp;P1;durP1;ratioP1;P2;durP2;ratioP2
33780;SDS011;20097;50.832;19.100;2023-08-01T00:00:22;7.43;;;4.32;;
33780;SDS011;20097;50.832;19.100;2023-08-01T00:05:29;8.38;;;4.60;;
33780;SDS011;20097;50.832;19.100;2023-08-01T00:10:33;5.32;;;3.88;;
33780;SDS011;20097;50.832;19.100;2023-08-01T00:15:38;7.28;;;3.97;;
33780;SDS011;20097;50.832;19.100;2023-08-01T00:20:52;8.82;;;4.25;;
33780;SDS011;20097;50.832;19.100;2023-08-01T00:25:57;7.05;;;4.55;;
33780;SDS011;20097;50.832;19.100;2023-08-01T00:31:02;7.40;;;4.10;;
33780;SDS011;20097;50.832;19.100;2023-08-01T00:36:09;9.27;;;4.45;;
33780;SDS011;20097;50.832;19.100;2023-08-01T00:41:13;5.95;;;3.88;;
33780;SDS011;20097;50.832;19.100;2023-08-01T00:46:18;6.93;;;3.63;;
33780;SDS011;20097;50.832;19.100;2023-08-01T00:51:25;8.93;;;5.03;;
33780;SDS011;20097;50.832;19.100;2023-08-01T00:56:30;9.38;;;4.05;;
33780;SDS011;20097;50.832;19.100;2023-08-01T01:01:35;6.97;;;4.13;;
33780;SDS011;20097;50.832;19.100;2023-08-01T01:06:44;7.10;;;4.18;;
33780;SDS011;20097;50.832;19.100;2023-08-01T01:12:00;11.05;;;4.32;;
33780;SDS011;20097;50.832;19.100;2023-08-01T01:17:06;8.95;;;4.10;;
33780;SDS011;20097;50.832;19.100;2023-08-01T01:22:12;8.05;;;4.32;;
33780;SDS011;20097;50.832;19.100;2023-08-01T01:27:18;9.02;;;4.30;;
33780;SDS011;20097;50.832;19.100;2023-08-01T01:32:23;9.35;;;4.55;;
33780;SDS011;20097;50.832;19.100;2023-08-01T01:37:30;10.38;;;4.88;;
33780;SDS011;20097;50.832;19.100;2023-08-01T01:42:35;7.50;;;4.22;;
33780;SDS011;20097;50.832;19.100;2023-08-01T01:47:40;6.35;;;3.97;;
33780;SDS011;20097;50.832;19.100;2023-08-01T01:52:46;8.02;;;3.75;;
33780;SDS011;20097;50.832;19.100;2023-08-01T01:57:51;5.70;;;4.07;;
33780;SDS011;20097;50.832;19.100;2023-08-01T02:02:55;9.30;;;4.43;;
33780;SDS011;20097;50.832;19.100;2023-08-01T02:08:02;24.33;;;4.55;;
33780;SDS011;20097;50.832;19.100;2023-08-01T02:13:07;6.28;;;4.30;;
33780;SDS011;20097;50.832;19.100;2023-08-01T02:18:12;5.43;;;3.65;;
33780;SDS011;20097;50.832;19.100;2023-08-01T02:23:17;9.55;;;3.95;;
33780;SDS011;20097;50.832;19.100;2023-08-01T02:28:22;7.43;;;4.35;;
33780;SDS011;20097;50.832;19.100;2023-08-01T02:33:26;8.50;;;3.97;;
33780;SDS011;20097;50.832;19.100;2023-08-01T02:38:32;12.27;;;3.85;;
33780;SDS011;20097;50.832;19.100;2023-08-01T02:43:36;7.00;;;3.58;;
33780;SDS011;20097;50.832;19.100;2023-08-01T02:48:41;11.95;;;4.20;;
33780;SDS011;20097;50.832;19.100;2023-08-01T02:53:47;8.93;;;4.25;;
33780;SDS011;20097;50.832;19.100;2023-08-01T02:58:51;5.63;;;3.47;;
33780;SDS011;20097;50.832;19.100;2023-08-01T03:03:55;6.95;;;4.20;;
33780;SDS011;20097;50.832;19.100;2023-08-01T03:09:01;6.32;;;3.80;;
33780;SDS011;20097;50.832;19.100;2023-08-01T03:14:06;10.25;;;3.80;;
33780;SDS011;20097;50.832;19.100;2023-08-01T03:19:11;8.02;;;4.07;;
33780;SDS011;20097;50.832;19.100;2023-08-01T03:24:17;6.00;;;3.67;;
33780;SDS011;20097;50.832;19.100;2023-08-01T03:29:21;6.07;;;3.50;;
33780;SDS011;20097;50.832;19.100;2023-08-01T03:34:26;7.63;;;3.80;;
33780;SDS011;20097;50.832;19.100;2023-08-01T03:39:32;11.27;;;4.05;;
33780;SDS011;20097;50.832;19.100;2023-08-01T03:44:36;11.15;;;3.58;;
33780;SDS011;20097;50.832;19.100;2023-08-01T03:49:41;5.68;;;3.53;;
33780;SDS011;20097;50.832;19.100;2023-08-01T03:54:48;5.35;;;3.40;;
33780;SDS011;20097;50.832;19.100;2023-08-01T03:59:52;9.57;;;3.42;;
33780;SDS011;20097;50.832;19.100;2023-08-01T04:04:57;9.65;;;3.60;;
33780;SDS011;20097;50.832;19.100;2023-08-01T04:10:02;8.82;;;3.80;;
33780;SDS011;20097;50.832;19.100;2023-08-01T04:15:08;7.78;;;3.22;;
33780;SDS011;20097;50.832;19.100;2023-08-01T04:20:13;6.72;;;3.30;;
33780;SDS011;20097;50.832;19.100;2023-08-01T04:25:19;6.55;;;3.45;;
33780;SDS011;20097;50.832;19.100;2023-08-01T04:30:26;9.23;;;3.13;;
33780;SDS011;20097;50.832;19.100;2023-08-01T04:35:30;9.00;;;3.60;;
33780;SDS011;20097;50.832;19.100;2023-08-01T04:40:36;5.03;;;2.80;;
33780;SDS011;20097;50.832;19.100;2023-08-01T04:45:40;7.22;;;3.42;;
33780;SDS011;20097;50.832;19.100;2023-08-01T04:50:45;4.70;;;2.85;;
33780;SDS011;20097;50.832;19.100;2023-08-01T04:55:51;4.97;;;3.08;;
33780;SDS011;20097;50.832;19.100;2023-08-01T05:00:56;6.03;;;3.25;;
33780;SDS011;20097;50.832;19.100;2023-08-01T05:06:00;4.43;;;2.80;;
33780;SDS011;20097;50.832;19.100;2023-08-01T05:11:06;7.78;;;4.07;;
33780;SDS011;20097;50.832;19.100;2023-08-01T05:16:10;9.60;;;3.90;;
33780;SDS011;20097;50.832;19.100;2023-08-01T05:21:15;5.93;;;3.20;;
33780;SDS011;20097;50.832;19.100;2023-08-01T05:26:21;7.45;;;4.00;;
33780;SDS011;20097;50.832;19.100;2023-08-01T05:31:25;7.78;;;3.25;;
33780;SDS011;20097;50.832;19.100;2023-08-01T05:36:30;4.95;;;3.45;;
33780;SDS011;20097;50.832;19.100;2023-08-01T05:41:35;7.25;;;3.28;;
33780;SDS011;20097;50.832;19.100;2023-08-01T05:46:39;4.97;;;3.10;;
33780;SDS011;20097;50.832;19.100;2023-08-01T05:51:45;9.05;;;3.67;;
33780;SDS011;20097;50.832;19.100;2023-08-01T05:56:51;4.53;;;2.88;;
33780;SDS011;20097;50.832;19.100;2023-08-01T06:01:56;5.78;;;3.00;;
33780;SDS011;20097;50.832;19.100;2023-08-01T06:12:06;6.55;;;3.17;;
33780;SDS011;20097;50.832;19.100;2023-08-01T06:17:11;12.23;;;3.08;;
33780;SDS011;20097;50.832;19.100;2023-08-01T06:22:15;9.50;;;3.70;;
33780;SDS011;20097;50.832;19.100;2023-08-01T06:27:20;6.75;;;2.97;;
33780;SDS011;20097;50.832;19.100;2023-08-01T06:32:25;6.93;;;2.95;;
33780;SDS011;20097;50.832;19.100;2023-08-01T06:37:29;5.85;;;3.13;;
33780;SDS011;20097;50.832;19.100;2023-08-01T06:42:35;6.97;;;3.05;;
33780;SDS011;20097;50.832;19.100;2023-08-01T06:47:40;8.55;;;3.22;;
33780;SDS011;20097;50.832;19.100;2023-08-01T06:52:44;12.90;;;2.90;;
33780;SDS011;20097;50.832;19.100;2023-08-01T06:57:50;5.32;;;3.03;;
33780;SDS011;20097;50.832;19.100;2023-08-01T07:02:54;7.60;;;3.10;;
33780;SDS011;20097;50.832;19.100;2023-08-01T07:07:59;4.10;;;2.83;;
33780;SDS011;20097;50.832;19.100;2023-08-01T07:13:05;7.68;;;2.80;;
33780;SDS011;20097;50.832;19.100;2023-08-01T07:18:09;5.43;;;2.65;;
33780;SDS011;20097;50.832;19.100;2023-08-01T07:23:13;5.28;;;3.17;;
33780;SDS011;20097;50.832;19.100;2023-08-01T07:33:24;7.00;;;2.85;;
33780;SDS011;20097;50.832;19.100;2023-08-01T07:43:35;5.55;;;3.00;;
33780;SDS011;20097;50.832;19.100;2023-08-01T07:48:40;8.45;;;3.10;;
33780;SDS011;20097;50.832;19.100;2023-08-01T07:53:44;7.20;;;3.00;;
33780;SDS011;20097;50.832;19.100;2023-08-01T07:58:50;6.45;;;4.03;;
33780;SDS011;20097;50.832;19.100;2023-08-01T08:03:54;7.38;;;2.85;;
33780;SDS011;20097;50.832;19.100;2023-08-01T08:08:58;8.13;;;3.40;;
33780;SDS011;20097;50.832;19.100;2023-08-01T08:14:04;5.20;;;2.75;;
33780;SDS011;20097;50.832;19.100;2023-08-01T08:19:08;7.68;;;3.67;;
33780;SDS011;20097;50.832;19.100;2023-08-01T08:24:13;5.43;;;2.78;;
33780;SDS011;20097;50.832;19.100;2023-08-01T08:29:18;7.72;;;3.15;;
33780;SDS011;20097;50.832;19.100;2023-08-01T08:34:23;9.60;;;2.90;;
33780;SDS011;20097;50.832;19.100;2023-08-01T08:39:28;5.40;;;3.55;;
33780;SDS011;20097;50.832;19.100;2023-08-01T08:44:34;5.20;;;2.92;;
33780;SDS011;20097;50.832;19.100;2023-08-01T08:49:45;6.57;;;2.92;;
33780;SDS011;20097;50.832;19.100;2023-08-01T08:54:50;6.03;;;3.47;;
33780;SDS011;20097;50.832;19.100;2023-08-01T08:59:56;5.15;;;2.95;;
33780;SDS011;20097;50.832;19.100;2023-08-01T09:05:03;5.85;;;4.38;;
33780;SDS011;20097;50.832;19.100;2023-08-01T09:10:08;7.63;;;2.88;;
33780;SDS011;20097;50.832;19.100;2023-08-01T09:15:14;6.07;;;3.08;;
33780;SDS011;20097;50.832;19.100;2023-08-01T09:20:20;3.38;;;2.47;;
33780;SDS011;20097;50.832;19.100;2023-08-01T09:25:30;5.25;;;3.50;;
33780;SDS011;20097;50.832;19.100;2023-08-01T09:30:44;3.50;;;2.70;;
33780;SDS011;20097;50.832;19.100;2023-08-01T09:35:50;6.50;;;3.88;;
33780;SDS011;20097;50.832;19.100;2023-08-01T09:40:56;7.35;;;3.20;;
33780;SDS011;20097;50.832;19.100;2023-08-01T09:46:02;4.32;;;2.75;;
33780;SDS011;20097;50.832;19.100;2023-08-01T09:51:10;3.90;;;3.08;;
33780;SDS011;20097;50.832;19.100;2023-08-01T09:56:18;3.97;;;2.92;;
33780;SDS011;20097;50.832;19.100;2023-08-01T10:01:25;7.93;;;3.13;;
33780;SDS011;20097;50.832;19.100;2023-08-01T10:06:31;5.03;;;3.47;;
33780;SDS011;20097;50.832;19.100;2023-08-01T10:11:40;5.63;;;3.22;;
33780;SDS011;20097;50.832;19.100;2023-08-01T10:21:51;5.70;;;2.80;;
33780;SDS011;20097;50.832;19.100;2023-08-01T10:26:57;7.53;;;3.35;;
33780;SDS011;20097;50.832;19.100;2023-08-01T10:32:13;4.68;;;2.97;;
33780;SDS011;20097;50.832;19.100;2023-08-01T10:37:20;8.05;;;3.55;;
33780;SDS011;20097;50.832;19.100;2023-08-01T10:42:24;4.55;;;3.60;;
33780;SDS011;20097;50.832;19.100;2023-08-01T10:47:30;6.32;;;3.63;;
33780;SDS011;20097;50.832;19.100;2023-08-01T10:52:36;6.40;;;3.97;;
33780;SDS011;20097;50.832;19.100;2023-08-01T10:57:46;6.03;;;3.53;;
33780;SDS011;20097;50.832;19.100;2023-08-01T11:02:54;5.03;;;3.35;;
33780;SDS011;20097;50.832;19.100;2023-08-01T11:07:59;4.78;;;3.60;;
33780;SDS011;20097;50.832;19.100;2023-08-01T11:13:05;7.13;;;3.85;;
33780;SDS011;20097;50.832;19.100;2023-08-01T11:18:16;6.38;;;3.90;;
33780;SDS011;20097;50.832;19.100;2023-08-01T11:23:27;6.45;;;4.18;;
33780;SDS011;20097;50.832;19.100;2023-08-01T11:28:31;8.48;;;4.43;;
33780;SDS011;20097;50.832;19.100;2023-08-01T11:33:37;8.43;;;4.35;;
33780;SDS011;20097;50.832;19.100;2023-08-01T11:38:42;6.10;;;3.60;;
33780;SDS011;20097;50.832;19.100;2023-08-01T11:43:46;10.50;;;4.78;;
33780;SDS011;20097;50.832;19.100;2023-08-01T11:48:52;6.82;;;4.40;;
33780;SDS011;20097;50.832;19.100;2023-08-01T11:54:00;6.95;;;4.50;;
33780;SDS011;20097;50.832;19.100;2023-08-01T11:59:08;9.60;;;4.90;;
33780;SDS011;20097;50.832;19.100;2023-08-01T12:04:24;10.30;;;6.18;;
33780;SDS011;20097;50.832;19.100;2023-08-01T12:09:31;5.95;;;4.82;;
33780;SDS011;20097;50.832;19.100;2023-08-01T12:14:38;6.30;;;4.93;;
33780;SDS011;20097;50.832;19.100;2023-08-01T12:19:45;6.85;;;3.38;;
33780;SDS011;20097;50.832;19.100;2023-08-01T12:24:49;5.65;;;4.20;;
33780;SDS011;20097;50.832;19.100;2023-08-01T12:29:53;6.68;;;4.00;;
33780;SDS011;20097;50.832;19.100;2023-08-01T12:34:59;7.38;;;3.55;;
33780;SDS011;20097;50.832;19.100;2023-08-01T12:40:04;6.90;;;3.67;;
33780;SDS011;20097;50.832;19.100;2023-08-01T12:45:10;6.43;;;3.90;;
33780;SDS011;20097;50.832;19.100;2023-08-01T12:50:16;7.88;;;4.35;;
33780;SDS011;20097;50.832;19.100;2023-08-01T12:55:20;5.15;;;3.67;;
33780;SDS011;20097;50.832;19.100;2023-08-01T13:00:25;6.35;;;3.70;;
33780;SDS011;20097;50.832;19.100;2023-08-01T13:05:32;4.85;;;3.78;;
33780;SDS011;20097;50.832;19.100;2023-08-01T13:10:38;6.75;;;3.95;;
33780;SDS011;20097;50.832;19.100;2023-08-01T13:15:42;5.05;;;3.50;;
33780;SDS011;20097;50.832;19.100;2023-08-01T13:20:48;9.13;;;4.28;;
33780;SDS011;20097;50.832;19.100;2023-08-01T13:25:52;5.90;;;3.85;;
33780;SDS011;20097;50.832;19.100;2023-08-01T13:30:57;5.35;;;3.78;;
33780;SDS011;20097;50.832;19.100;2023-08-01T13:36:03;7.55;;;3.72;;
33780;SDS011;20097;50.832;19.100;2023-08-01T13:41:07;6.20;;;3.47;;
33780;SDS011;20097;50.832;19.100;2023-08-01T13:46:12;5.05;;;3.63;;
33780;SDS011;20097;50.832;19.100;2023-08-01T13:51:32;4.97;;;3.88;;
33780;SDS011;20097;50.832;19.100;2023-08-01T13:56:37;4.57;;;3.38;;
33780;SDS011;20097;50.832;19.100;2023-08-01T14:01:41;5.15;;;4.10;;
33780;SDS011;20097;50.832;19.100;2023-08-01T14:06:47;4.15;;;3.72;;
33780;SDS011;20097;50.832;19.100;2023-08-01T14:11:52;4.80;;;3.85;;
33780;SDS011;20097;50.832;19.100;2023-08-01T14:16:56;4.00;;;3.25;;
33780;SDS011;20097;50.832;19.100;2023-08-01T14:22:02;5.78;;;3.50;;
33780;SDS011;20097;50.832;19.100;2023-08-01T14:27:08;4.97;;;3.97;;
33780;SDS011;20097;50.832;19.100;2023-08-01T14:32:12;6.13;;;3.97;;
33780;SDS011;20097;50.832;19.100;2023-08-01T14:37:18;4.15;;;3.38;;
33780;SDS011;20097;50.832;19.100;2023-08-01T14:42:26;7.20;;;4.00;;
33780;SDS011;20097;50.832;19.100;2023-08-01T14:52:38;5.03;;;3.50;;
33780;SDS011;20097;50.832;19.100;2023-08-01T14:57:42;4.22;;;3.08;;
33780;SDS011;20097;50.832;19.100;2023-08-01T15:02:47;4.35;;;3.20;;
33780;SDS011;20097;50.832;19.100;2023-08-01T15:18:01;3.73;;;3.33;;
33780;SDS011;20097;50.832;19.100;2023-08-01T15:28:11;5.03;;;3.00;;
33780;SDS011;20097;50.832;19.100;2023-08-01T15:33:16;10.15;;;3.83;;
33780;SDS011;20097;50.832;19.100;2023-08-01T15:43:26;5.43;;;3.25;;
33780;SDS011;20097;50.832;19.100;2023-08-01T15:48:32;6.47;;;3.47;;
33780;SDS011;20097;50.832;19.100;2023-08-01T15:53:38;5.60;;;2.92;;
33780;SDS011;20097;50.832;19.100;2023-08-01T15:58:43;4.22;;;2.92;;
33780;SDS011;20097;50.832;19.100;2023-08-01T16:03:47;5.70;;;3.63;;
33780;SDS011;20097;50.832;19.100;2023-08-01T16:08:53;5.22;;;3.47;;
33780;SDS011;20097;50.832;19.100;2023-08-01T16:13:58;5.65;;;3.80;;
33780;SDS011;20097;50.832;19.100;2023-08-01T16:19:03;5.18;;;3.28;;
33780;SDS011;20097;50.832;19.100;2023-08-01T16:24:08;6.18;;;3.95;;
33780;SDS011;20097;50.832;19.100;2023-08-01T16:29:13;4.38;;;2.88;;
33780;SDS011;20097;50.832;19.100;2023-08-01T16:34:18;4.95;;;3.28;;
33780;SDS011;20097;50.832;19.100;2023-08-01T16:39:24;6.45;;;3.67;;
33780;SDS011;20097;50.832;19.100;2023-08-01T16:44:28;4.32;;;3.45;;
33780;SDS011;20097;50.832;19.100;2023-08-01T16:49:32;4.60;;;3.30;;
33780;SDS011;20097;50.832;19.100;2023-08-01T16:54:38;4.65;;;3.88;;
33780;SDS011;20097;50.832;19.100;2023-08-01T16:59:42;4.00;;;3.35;;
33780;SDS011;20097;50.832;19.100;2023-08-01T17:04:47;5.45;;;3.28;;
33780;SDS011;20097;50.832;19.100;2023-08-01T17:09:53;7.03;;;3.22;;
33780;SDS011;20097;50.832;19.100;2023-08-01T17:15:00;4.55;;;3.38;;
33780;SDS011;20097;50.832;19.100;2023-08-01T17:20:06;4.72;;;3.28;;
33780;SDS011;20097;50.832;19.100;2023-08-01T17:25:13;3.25;;;2.95;;
33780;SDS011;20097;50.832;19.100;2023-08-01T17:30:17;3.78;;;2.88;;
33780;SDS011;20097;50.832;19.100;2023-08-01T17:35:22;3.80;;;2.83;;
33780;SDS011;20097;50.832;19.100;2023-08-01T17:40:28;4.22;;;3.03;;
33780;SDS011;20097;50.832;19.100;2023-08-01T17:45:32;4.10;;;2.72;;
33780;SDS011;20097;50.832;19.100;2023-08-01T17:50:36;4.68;;;3.63;;
33780;SDS011;20097;50.832;19.100;2023-08-01T17:55:45;6.00;;;3.42;;
33780;SDS011;20097;50.832;19.100;2023-08-01T18:00:50;3.40;;;2.72;;
33780;SDS011;20097;50.832;19.100;2023-08-01T18:06:01;4.70;;;2.60;;
33780;SDS011;20097;50.832;19.100;2023-08-01T18:11:12;4.22;;;2.83;;
33780;SDS011;20097;50.832;19.100;2023-08-01T18:16:18;3.97;;;3.58;;
33780;SDS011;20097;50.832;19.100;2023-08-01T18:21:24;4.82;;;3.30;;
33780;SDS011;20097;50.832;19.100;2023-08-01T18:26:29;4.68;;;3.60;;
33780;SDS011;20097;50.832;19.100;2023-08-01T18:31:35;5.25;;;3.63;;
33780;SDS011;20097;50.832;19.100;2023-08-01T18:36:40;7.22;;;3.30;;
33780;SDS011;20097;50.832;19.100;2023-08-01T18:46:52;5.90;;;3.45;;
33780;SDS011;20097;50.832;19.100;2023-08-01T18:51:56;6.07;;;3.28;;
33780;SDS011;20097;50.832;19.100;2023-08-01T18:57:01;5.05;;;3.50;;
33780;SDS011;20097;50.832;19.100;2023-08-01T19:02:06;3.95;;;2.95;;
33780;SDS011;20097;50.832;19.100;2023-08-01T19:07:11;4.93;;;3.33;;
33780;SDS011;20097;50.832;19.100;2023-08-01T19:17:21;4.93;;;3.20;;
33780;SDS011;20097;50.832;19.100;2023-08-01T19:22:26;4.43;;;3.58;;
33780;SDS011;20097;50.832;19.100;2023-08-01T19:27:31;7.78;;;3.83;;
33780;SDS011;20097;50.832;19.100;2023-08-01T19:32:37;8.18;;;4.13;;
33780;SDS011;20097;50.832;19.100;2023-08-01T19:37:41;5.68;;;4.53;;
33780;SDS011;20097;50.832;19.100;2023-08-01T19:42:47;5.20;;;4.15;;
33780;SDS011;20097;50.832;19.100;2023-08-01T19:47:51;4.93;;;3.50;;
33780;SDS011;20097;50.832;19.100;2023-08-01T19:52:55;6.22;;;3.85;;
33780;SDS011;20097;50.832;19.100;2023-08-01T19:58:01;6.80;;;4.60;;
33780;SDS011;20097;50.832;19.100;2023-08-01T20:03:06;5.45;;;3.90;;
33780;SDS011;20097;50.832;19.100;2023-08-01T20:08:11;6.28;;;3.80;;
33780;SDS011;20097;50.832;19.100;2023-08-01T20:13:17;7.45;;;4.05;;
33780;SDS011;20097;50.832;19.100;2023-08-01T20:18:22;5.72;;;3.78;;
33780;SDS011;20097;50.832;19.100;2023-08-01T20:23:26;6.05;;;4.50;;
33780;SDS011;20097;50.832;19.100;2023-08-01T20:33:36;5.90;;;4.03;;
33780;SDS011;20097;50.832;19.100;2023-08-01T20:38:41;6.05;;;3.50;;
33780;SDS011;20097;50.832;19.100;2023-08-01T20:43:46;6.22;;;4.20;;
33780;SDS011;20097;50.832;19.100;2023-08-01T20:48:51;6.15;;;3.55;;
33780;SDS011;20097;50.832;19.100;2023-08-01T20:53:55;7.05;;;4.28;;
33780;SDS011;20097;50.832;19.100;2023-08-01T20:59:02;5.90;;;4.13;;
33780;SDS011;20097;50.832;19.100;2023-08-01T21:04:07;7.00;;;3.67;;
33780;SDS011;20097;50.832;19.100;2023-08-01T21:09:11;7.85;;;4.38;;
33780;SDS011;20097;50.832;19.100;2023-08-01T21:14:17;7.43;;;4.28;;
33780;SDS011;20097;50.832;19.100;2023-08-01T21:19:21;6.13;;;4.10;;
33780;SDS011;20097;50.832;19.100;2023-08-01T21:24:26;3.95;;;3.10;;
33780;SDS011;20097;50.832;19.100;2023-08-01T21:29:32;8.27;;;4.07;;
33780;SDS011;20097;50.832;19.100;2023-08-01T21:34:36;6.40;;;4.55;;
33780;SDS011;20097;50.832;19.100;2023-08-01T21:39:40;5.97;;;3.78;;
33780;SDS011;20097;50.832;19.100;2023-08-01T21:44:46;8.73;;;3.83;;
33780;SDS011;20097;50.832;19.100;2023-08-01T21:49:50;5.68;;;4.38;;
33780;SDS011;20097;50.832;19.100;2023-08-01T21:54:55;7.65;;;4.20;;
33780;SDS011;20097;50.832;19.100;2023-08-01T22:00:01;6.55;;;4.40;;
33780;SDS011;20097;50.832;19.100;2023-08-01T22:05:06;5.32;;;4.10;;
33780;SDS011;20097;50.832;19.100;2023-08-01T22:10:12;7.60;;;4.75;;
33780;SDS011;20097;50.832;19.100;2023-08-01T22:15:19;5.18;;;3.83;;
33780;SDS011;20097;50.832;19.100;2023-08-01T22:20:24;5.10;;;4.22;;
33780;SDS011;20097;50.832;19.100;2023-08-01T22:35:40;6.78;;;4.72;;
33780;SDS011;20097;50.832;19.100;2023-08-01T22:40:44;5.20;;;4.20;;
33780;SDS011;20097;50.832;19.100;2023-08-01T22:45:55;7.28;;;4.47;;
33780;SDS011;20097;50.832;19.100;2023-08-01T22:50:59;8.80;;;5.10;;
33780;SDS011;20097;50.832;19.100;2023-08-01T22:56:03;15.63;;;6.35;;
33780;SDS011;20097;50.832;19.100;2023-08-01T23:01:09;15.57;;;7.50;;
33780;SDS011;20097;50.832;19.100;2023-08-01T23:06:16;17.95;;;7.97;;
33780;SDS011;20097;50.832;19.100;2023-08-01T23:11:21;17.23;;;8.02;;
33780;SDS011;20097;50.832;19.100;2023-08-01T23:16:26;18.17;;;7.68;;
33780;SDS011;20097;50.832;19.100;2023-08-01T23:21:31;12.35;;;7.63;;
33780;SDS011;20097;50.832;19.100;2023-08-01T23:26:35;14.07;;;8.30;;
33780;SDS011;20097;50.832;19.100;2023-08-01T23:41:49;7.82;;;3.95;;
33780;SDS011;20097;50.832;19.100;2023-08-01T23:46:56;8.45;;;4.13;;
33780;SDS011;20097;50.832;19.100;2023-08-01T23:52:01;4.95;;;3.50;;
33780;SDS011;20097;50.832;19.100;2023-08-01T23:57:07;4.95;;;3.95;;
